Etusivu
METAR-TAF:

METAR-TAF

Lentoasemat :

Rønne, Tanska

Leveyspiiri: 55-04N, Pituuspiiri: 014-45E, korkeus merenpinnasta: 16 m

Tämänhetkinen sää

Tämä raportti tehtiin 33 minuuttia sitten, kello 09.50 UTC
Tuuli 6 kn lännestä
Lämpötila 12°C
Kosteus 24%
Ilmanpaine 1034 hPa
Näkyvyys 10 km tai enemmän

METAR: EKRN 200950Z AUTO 27006KT 9999 FEW190/// 12/M08 Q1034

Aika: 12:23 (10:23 UTC)

Sääennuste

Tämä raportti tehtiin 2 tuntia ja 1 minuuttia sitten, kello 08.22 UTC
Ennuste voimassa 20. päivästä klo 09 UTC - 20. päivään klo 18 UTC
Tuuli 6 kn lännestä
Näkyvyys 10 km tai enemmän
ei pilviä alle 1500 m:ssä eikä cumulonimbus-pilviä

TAF: EKRN 200822Z 2009/2018 28006KT CAVOK

Säähavainnot ja -ennusteet yli 4000 lentoasemalta (METAR- ja TAF-raportit).

Käytössä olevat sääasemat on merkitty karttaan keltaisilla ja punaisilla pisteillä.

Aseta hiiri pisteen päälle nähdäksesi sääaseman nimen.

Klikkaa sitten nähdäksesi säähavainnot ja -ennusteet.

Kartan vaihtaminen: klikkaa mustalla rastilla varustettuja vihreitä pisteitä, niin voit zoomata sisään; viivalla varustettua vihreää pistettä, niin voit zoomata ulos tai vihreitä nuolia, niin pääset viereisille kartoille.


METAR-TAF: